createdAt,value
2023-01-31T00:01:58.868Z,-1.44
2023-01-31T00:04:27.011Z,-1.41
2023-01-31T00:06:54.911Z,-1.47
2023-01-31T00:09:22.829Z,-1.44
2023-01-31T00:11:50.828Z,-1.43
2023-01-31T00:14:22.747Z,-1.36
2023-01-31T00:16:52.281Z,-1.31
2023-01-31T00:19:20.276Z,-1.30
2023-01-31T00:21:48.331Z,-1.31
2023-01-31T00:24:16.329Z,-1.31
2023-01-31T00:26:44.448Z,-1.26
2023-01-31T00:29:12.427Z,-1.24
2023-01-31T00:31:40.611Z,-1.18
2023-01-31T00:34:08.811Z,-1.15
2023-01-31T00:36:37.763Z,-1.15
2023-01-31T00:39:08.461Z,-1.18
2023-01-31T00:41:38.627Z,-1.19
2023-01-31T00:44:07.440Z,-1.31
2023-01-31T00:46:36.475Z,-1.44
2023-01-31T00:49:04.776Z,-1.36
2023-01-31T00:51:32.919Z,-1.39
2023-01-31T00:54:00.944Z,-1.37
2023-01-31T00:56:29.279Z,-1.30
2023-01-31T00:58:57.451Z,-1.28
2023-01-31T01:01:28.228Z,-1.27
2023-01-31T01:03:57.845Z,-1.30
2023-01-31T01:06:26.926Z,-1.28
2023-01-31T01:08:57.554Z,-1.26
2023-01-31T01:11:32.063Z,-1.25
2023-01-31T01:14:01.166Z,-1.26
2023-01-31T01:16:38.271Z,-1.29
2023-01-31T01:19:10.633Z,-1.30
2023-01-31T01:21:39.600Z,-1.30
2023-01-31T01:24:19.061Z,-1.31
2023-01-31T01:26:48.637Z,-1.38
2023-01-31T01:29:16.647Z,-1.39
2023-01-31T01:31:45.830Z,-1.39
2023-01-31T01:34:16.308Z,-1.32
2023-01-31T01:36:47.530Z,-1.32
2023-01-31T01:39:18.249Z,-1.29
2023-01-31T01:41:47.680Z,-1.30
2023-01-31T01:44:46.811Z,-1.30
2023-01-31T01:47:30.666Z,-1.30
2023-01-31T01:50:17.780Z,-1.32
2023-01-31T01:52:50.727Z,-1.35
2023-01-31T01:55:22.271Z,-1.41
2023-01-31T01:57:54.289Z,-1.43
2023-01-31T02:00:27.442Z,-1.48
2023-01-31T02:02:59.351Z,-1.53
2023-01-31T02:05:53.572Z,-1.55
2023-01-31T02:08:25.900Z,-1.53
2023-01-31T02:11:04.430Z,-1.52
2023-01-31T02:13:33.503Z,-1.47
2023-01-31T02:16:01.558Z,-1.41
2023-01-31T02:18:29.857Z,-1.37
2023-01-31T02:21:00.699Z,-1.37
2023-01-31T02:23:59.295Z,-1.44
2023-01-31T02:26:46.131Z,-1.43
2023-01-31T02:29:35.475Z,-1.44
2023-01-31T02:32:31.091Z,-1.49
2023-01-31T02:35:02.113Z,-1.52
2023-01-31T02:37:40.008Z,-1.59
2023-01-31T02:40:23.003Z,-1.55
2023-01-31T02:43:10.001Z,-1.54
2023-01-31T02:46:00.245Z,-1.50
2023-01-31T02:48:43.687Z,-1.46
2023-01-31T02:51:25.074Z,-1.41
2023-01-31T02:54:01.736Z,-1.38
2023-01-31T02:56:33.694Z,-1.35
2023-01-31T02:59:10.465Z,-1.34
2023-01-31T03:01:42.814Z,-1.37
2023-01-31T03:04:13.632Z,-1.41
2023-01-31T03:06:54.868Z,-1.44
2023-01-31T03:09:36.880Z,-1.46
2023-01-31T03:12:12.121Z,-1.48
2023-01-31T03:14:53.236Z,-1.44
2023-01-31T03:17:35.217Z,-1.37
2023-01-31T03:20:08.535Z,-1.30
2023-01-31T03:22:48.866Z,-1.27
2023-01-31T03:25:22.046Z,-1.27
2023-01-31T03:27:57.060Z,-1.28
2023-01-31T03:30:37.738Z,-1.29
2023-01-31T03:33:15.896Z,-1.38
2023-01-31T03:35:52.596Z,-1.40
2023-01-31T03:38:25.834Z,-1.44
2023-01-31T03:40:58.233Z,-1.41
2023-01-31T03:43:40.656Z,-1.40
2023-01-31T03:46:16.891Z,-1.42
2023-01-31T03:48:51.281Z,-1.41
2023-01-31T03:51:24.998Z,-1.38
2023-01-31T03:54:00.375Z,-1.38
2023-01-31T03:56:50.975Z,-1.40
2023-01-31T03:59:24.913Z,-1.42
2023-01-31T04:01:57.774Z,-1.47
2023-01-31T04:04:32.886Z,-1.51
2023-01-31T04:07:02.063Z,-1.48
2023-01-31T04:09:31.452Z,-1.46
2023-01-31T04:12:01.765Z,-1.46
2023-01-31T04:14:29.818Z,-1.41
2023-01-31T04:16:57.891Z,-1.39
2023-01-31T04:19:25.854Z,-1.37
2023-01-31T04:21:54.009Z,-1.41
2023-01-31T04:24:23.249Z,-1.45
2023-01-31T04:26:51.232Z,-1.47
2023-01-31T04:29:19.417Z,-1.49
2023-01-31T04:31:47.816Z,-1.51
2023-01-31T04:34:15.841Z,-1.52
2023-01-31T04:36:43.859Z,-1.54
2023-01-31T04:39:13.715Z,-1.53
2023-01-31T04:41:41.711Z,-1.53
2023-01-31T04:44:10.474Z,-1.52
2023-01-31T04:46:38.614Z,-1.51
2023-01-31T04:49:06.780Z,-1.53
2023-01-31T04:51:35.131Z,-1.56
2023-01-31T04:54:03.134Z,-1.62
2023-01-31T04:56:32.119Z,-1.64
2023-01-31T04:59:00.166Z,-1.65
2023-01-31T05:01:29.296Z,-1.67
2023-01-31T05:03:57.301Z,-1.66
2023-01-31T05:06:25.375Z,-1.70
2023-01-31T05:08:54.619Z,-1.70
2023-01-31T05:11:22.603Z,-1.72
2023-01-31T05:13:50.576Z,-1.71
2023-01-31T05:16:18.637Z,-1.75
2023-01-31T05:18:46.631Z,-1.76
2023-01-31T05:21:14.805Z,-1.76
2023-01-31T05:23:42.792Z,-1.77
2023-01-31T05:26:11.407Z,-1.80
2023-01-31T05:28:39.422Z,-1.81
2023-01-31T05:31:09.093Z,-1.83
2023-01-31T05:33:38.320Z,-1.82
2023-01-31T05:36:07.060Z,-1.77
2023-01-31T05:38:35.666Z,-1.74
2023-01-31T05:41:03.706Z,-1.70
2023-01-31T05:43:32.284Z,-1.67
2023-01-31T05:46:02.703Z,-1.73
2023-01-31T05:48:31.097Z,-1.75
2023-01-31T05:50:59.183Z,-1.74
2023-01-31T05:53:27.357Z,-1.82
2023-01-31T05:55:55.652Z,-1.86
2023-01-31T05:58:23.595Z,-1.90
2023-01-31T06:00:56.591Z,-1.89
2023-01-31T06:03:24.731Z,-1.90
2023-01-31T06:05:53.645Z,-1.86
2023-01-31T06:08:22.240Z,-1.81
2023-01-31T06:10:52.341Z,-1.73
2023-01-31T06:13:20.292Z,-1.69
2023-01-31T06:15:49.777Z,-1.66
2023-01-31T06:18:18.219Z,-1.64
2023-01-31T06:20:46.253Z,-1.56
2023-01-31T06:23:14.648Z,-1.54
2023-01-31T06:25:43.069Z,-1.53
2023-01-31T06:28:11.275Z,-1.50
2023-01-31T06:30:40.274Z,-1.49
2023-01-31T06:33:08.974Z,-1.46
2023-01-31T06:35:37.451Z,-1.40
2023-01-31T06:38:06.615Z,-1.38
2023-01-31T06:40:36.570Z,-1.29
2023-01-31T06:43:04.852Z,-1.22
2023-01-31T06:45:33.122Z,-1.17
2023-01-31T06:48:01.823Z,-1.16
2023-01-31T06:50:30.799Z,-1.13
2023-01-31T06:52:59.475Z,-1.12
2023-01-31T06:55:28.064Z,-1.15
2023-01-31T06:57:56.220Z,-1.17
2023-01-31T07:00:26.066Z,-1.16
2023-01-31T07:02:54.447Z,-1.10
2023-01-31T07:05:23.575Z,-1.07
2023-01-31T07:07:52.502Z,-1.01
2023-01-31T07:10:20.689Z,-0.97
2023-01-31T07:12:48.956Z,-0.90
2023-01-31T07:15:19.799Z,-0.89
2023-01-31T07:17:48.033Z,-0.86
2023-01-31T07:20:16.299Z,-0.87
2023-01-31T07:22:44.240Z,-0.89
2023-01-31T07:25:12.230Z,-0.86
2023-01-31T07:27:40.187Z,-0.82
2023-01-31T07:30:08.772Z,-0.72
2023-01-31T07:32:37.653Z,-0.60
2023-01-31T07:35:06.145Z,-0.50
2023-01-31T07:37:34.212Z,-0.42
2023-01-31T07:40:02.219Z,-0.42
2023-01-31T07:42:30.995Z,-0.27
2023-01-31T07:45:06.959Z,-0.21
2023-01-31T07:47:45.065Z,-0.18
2023-01-31T07:50:13.594Z,-0.16
2023-01-31T07:52:42.082Z,-0.03
2023-01-31T07:55:10.516Z,0.09
2023-01-31T07:57:39.514Z,0.21
2023-01-31T08:00:31.097Z,0.35
2023-01-31T08:03:17.599Z,0.44
2023-01-31T08:05:47.678Z,0.51
2023-01-31T08:08:15.815Z,0.50
2023-01-31T08:10:43.875Z,0.54
2023-01-31T08:13:12.956Z,0.59
2023-01-31T08:15:40.924Z,0.51
2023-01-31T08:18:09.033Z,0.54
2023-01-31T08:20:41.653Z,0.59
2023-01-31T08:23:09.624Z,0.64
2023-01-31T08:25:37.721Z,0.69
2023-01-31T08:28:05.981Z,0.71
2023-01-31T08:30:34.614Z,0.87
2023-01-31T08:33:02.958Z,1.03
2023-01-31T08:35:31.544Z,1.15
2023-01-31T08:38:15.418Z,1.24
2023-01-31T08:40:44.720Z,1.27
2023-01-31T08:43:13.351Z,1.22
2023-01-31T08:45:42.391Z,1.24
2023-01-31T08:48:11.002Z,1.35
2023-01-31T08:50:40.588Z,1.47
2023-01-31T08:53:09.293Z,1.58
2023-01-31T08:55:37.456Z,1.72
2023-01-31T08:58:06.026Z,1.77
2023-01-31T09:00:35.857Z,1.85
2023-01-31T09:03:04.927Z,1.94
2023-01-31T09:05:34.786Z,2.05
2023-01-31T09:08:03.068Z,1.96
2023-01-31T09:10:31.454Z,2.08
2023-01-31T09:13:10.142Z,2.13
2023-01-31T09:15:38.186Z,2.18
2023-01-31T09:18:06.470Z,2.19
2023-01-31T09:20:34.469Z,2.11
2023-01-31T09:23:04.005Z,2.05
2023-01-31T09:25:44.827Z,2.15
2023-01-31T09:28:24.633Z,2.17
2023-01-31T09:30:56.608Z,2.28
2023-01-31T09:33:24.960Z,2.32
2023-01-31T09:36:02.153Z,2.39
2023-01-31T09:38:31.066Z,2.37
2023-01-31T09:41:05.669Z,2.44
2023-01-31T09:43:44.412Z,2.41
2023-01-31T09:46:20.108Z,2.73
2023-01-31T09:48:53.627Z,2.71
2023-01-31T09:51:24.433Z,2.92
2023-01-31T09:53:57.232Z,2.90
2023-01-31T09:56:40.947Z,2.89
2023-01-31T09:59:12.788Z,2.81
2023-01-31T10:02:10.126Z,2.92
2023-01-31T10:05:04.131Z,3.04
2023-01-31T10:08:08.755Z,3.16
2023-01-31T10:10:43.504Z,3.28
2023-01-31T10:13:39.742Z,3.09
2023-01-31T10:16:25.970Z,3.11
2023-01-31T10:19:02.513Z,3.12
2023-01-31T10:21:40.183Z,3.23
2023-01-31T10:24:19.445Z,3.37
2023-01-31T10:26:51.508Z,3.41
2023-01-31T10:29:43.573Z,3.36
2023-01-31T10:32:38.931Z,3.42
2023-01-31T10:35:37.329Z,3.32
2023-01-31T10:38:19.516Z,3.38
2023-01-31T10:40:59.183Z,3.39
2023-01-31T10:43:44.605Z,3.33
2023-01-31T10:46:14.808Z,3.15
2023-01-31T10:48:47.433Z,3.12
2023-01-31T10:52:15.095Z,3.10
2023-01-31T10:55:14.316Z,3.28
2023-01-31T10:57:45.068Z,3.33
2023-01-31T11:00:26.481Z,3.26
2023-01-31T11:02:58.139Z,3.21
2023-01-31T11:05:29.739Z,3.25
2023-01-31T11:08:01.449Z,3.21
2023-01-31T11:10:32.437Z,2.97
2023-01-31T11:13:07.424Z,3.00
2023-01-31T11:15:39.537Z,3.02
2023-01-31T11:18:15.280Z,2.73
2023-01-31T11:20:50.956Z,2.69
2023-01-31T11:23:25.953Z,2.62
2023-01-31T11:25:55.931Z,2.60
2023-01-31T11:28:38.334Z,2.69
2023-01-31T11:31:17.677Z,2.63
2023-01-31T11:33:55.967Z,2.56
2023-01-31T11:36:28.785Z,2.59
2023-01-31T11:38:56.963Z,2.59
2023-01-31T11:41:30.071Z,2.61
2023-01-31T11:44:16.560Z,2.64
2023-01-31T11:47:00.752Z,2.63
2023-01-31T11:49:30.494Z,2.69
2023-01-31T11:52:21.984Z,2.58
2023-01-31T11:54:57.943Z,2.62
2023-01-31T11:57:32.012Z,2.49
2023-01-31T12:00:03.734Z,2.42
2023-01-31T12:02:42.207Z,2.43
2023-01-31T12:05:17.949Z,2.41
2023-01-31T12:08:06.943Z,2.49
2023-01-31T12:10:47.235Z,2.54
2023-01-31T12:13:20.931Z,2.40
2023-01-31T12:15:57.003Z,2.42
2023-01-31T12:18:51.932Z,2.44
2023-01-31T12:21:25.894Z,2.43
2023-01-31T12:24:15.073Z,2.24
2023-01-31T12:26:57.024Z,2.19
2023-01-31T12:29:46.968Z,2.20
2023-01-31T12:32:35.608Z,2.12
2023-01-31T12:36:01.687Z,2.12
2023-01-31T12:38:48.870Z,2.10
2023-01-31T12:41:40.464Z,1.94
2023-01-31T12:44:39.716Z,2.00
2023-01-31T12:47:31.681Z,2.15
2023-01-31T12:50:02.612Z,2.22
2023-01-31T12:53:04.759Z,2.31
2023-01-31T12:55:44.314Z,2.35
2023-01-31T12:58:30.581Z,2.33
2023-01-31T13:01:07.629Z,2.06
2023-01-31T13:03:48.547Z,2.18
2023-01-31T13:06:23.969Z,2.21
2023-01-31T13:09:07.773Z,2.01
2023-01-31T13:11:55.042Z,2.05
2023-01-31T13:14:31.112Z,2.01
2023-01-31T13:17:05.016Z,2.09
2023-01-31T13:19:51.632Z,2.24
2023-01-31T13:22:28.815Z,2.23
2023-01-31T13:25:09.004Z,2.30
2023-01-31T13:27:42.273Z,2.36
2023-01-31T13:30:24.502Z,2.50
2023-01-31T13:32:56.643Z,2.62
2023-01-31T13:35:40.872Z,2.63
2023-01-31T13:38:21.098Z,2.80
2023-01-31T13:40:56.382Z,2.91
2023-01-31T13:43:25.805Z,3.03
2023-01-31T13:46:08.356Z,3.23
2023-01-31T13:48:43.798Z,3.35
2023-01-31T13:51:44.008Z,3.34
2023-01-31T13:54:36.380Z,3.41
2023-01-31T13:57:06.688Z,3.37
2023-01-31T13:59:40.728Z,3.18
2023-01-31T14:02:21.806Z,3.22
2023-01-31T14:04:51.226Z,3.17
2023-01-31T14:07:21.844Z,3.08
2023-01-31T14:09:50.093Z,3.00
2023-01-31T14:12:18.717Z,2.90
2023-01-31T14:14:52.547Z,2.83
2023-01-31T14:17:29.954Z,2.73
2023-01-31T14:19:58.022Z,2.66
2023-01-31T14:22:36.028Z,2.49
2023-01-31T14:25:15.497Z,2.51
2023-01-31T14:28:01.465Z,2.56
2023-01-31T14:30:48.696Z,2.52
2023-01-31T14:33:20.804Z,2.48
2023-01-31T14:35:58.107Z,2.57
2023-01-31T14:38:36.827Z,2.94
2023-01-31T14:41:16.920Z,3.25
2023-01-31T14:44:17.001Z,3.01
2023-01-31T14:46:57.163Z,2.92
2023-01-31T14:49:26.881Z,2.79
2023-01-31T14:52:09.811Z,2.77
2023-01-31T14:54:56.941Z,2.64
2023-01-31T14:57:30.744Z,2.63
2023-01-31T15:00:05.095Z,2.57
2023-01-31T15:02:42.013Z,2.54
2023-01-31T15:05:21.390Z,2.44
2023-01-31T15:08:27.003Z,2.36
2023-01-31T15:11:06.756Z,2.21
2023-01-31T15:13:47.076Z,2.11
2023-01-31T15:16:28.355Z,2.04
2023-01-31T15:19:00.577Z,2.00
2023-01-31T15:21:35.235Z,1.93
2023-01-31T15:24:05.315Z,1.82
2023-01-31T15:26:37.289Z,1.74
2023-01-31T15:29:07.259Z,1.64
2023-01-31T15:31:44.478Z,1.61
2023-01-31T15:34:29.826Z,1.51
2023-01-31T15:37:04.364Z,1.46
2023-01-31T15:39:57.086Z,1.41
2023-01-31T15:42:26.963Z,1.30
2023-01-31T15:45:13.664Z,1.24
2023-01-31T15:47:44.712Z,1.21
2023-01-31T15:50:18.585Z,1.18
2023-01-31T15:52:47.138Z,1.14
2023-01-31T15:55:18.825Z,1.10
2023-01-31T15:57:56.949Z,1.14
2023-01-31T16:00:35.200Z,1.14
2023-01-31T16:03:08.081Z,1.13
2023-01-31T16:05:39.325Z,1.13
2023-01-31T16:08:28.493Z,1.09
2023-01-31T16:10:57.965Z,1.05
2023-01-31T16:13:27.113Z,1.04
2023-01-31T16:15:55.349Z,1.03
2023-01-31T16:18:24.546Z,1.02
2023-01-31T16:20:55.010Z,0.99
2023-01-31T16:23:22.916Z,0.98
2023-01-31T16:26:00.930Z,0.98
2023-01-31T16:28:45.627Z,0.97
2023-01-31T16:31:17.508Z,0.98
2023-01-31T16:33:52.705Z,0.98
2023-01-31T16:36:26.082Z,0.95
2023-01-31T16:39:01.198Z,0.96
2023-01-31T16:41:52.570Z,0.96
2023-01-31T16:44:23.171Z,0.99
2023-01-31T16:46:51.678Z,1.02
2023-01-31T16:49:28.924Z,1.05
2023-01-31T16:52:24.844Z,1.08
2023-01-31T16:54:56.547Z,1.08
2023-01-31T16:57:35.857Z,1.09
2023-01-31T17:00:36.904Z,1.11
2023-01-31T17:03:19.971Z,1.10
2023-01-31T17:05:48.288Z,1.10
2023-01-31T17:08:22.220Z,1.12
2023-01-31T17:10:51.711Z,1.11
2023-01-31T17:13:25.840Z,1.07
2023-01-31T17:15:54.259Z,1.05
2023-01-31T17:18:22.312Z,1.04
2023-01-31T17:20:50.859Z,1.00
2023-01-31T17:23:19.941Z,0.98
2023-01-31T17:25:48.056Z,0.98
2023-01-31T17:28:16.286Z,0.95
2023-01-31T17:30:46.466Z,0.91
2023-01-31T17:33:16.041Z,0.88
2023-01-31T17:35:48.991Z,0.88
2023-01-31T17:38:17.065Z,0.89
2023-01-31T17:40:48.981Z,0.90
2023-01-31T17:43:22.141Z,0.95
2023-01-31T17:45:50.091Z,1.00
2023-01-31T17:48:26.257Z,1.03
2023-01-31T17:50:55.425Z,1.05
2023-01-31T17:53:23.741Z,1.06
2023-01-31T17:55:54.421Z,1.05
2023-01-31T17:58:23.090Z,1.07
2023-01-31T18:00:51.104Z,1.08
2023-01-31T18:03:25.618Z,1.06
2023-01-31T18:05:54.853Z,1.08
2023-01-31T18:08:24.762Z,1.09
2023-01-31T18:10:55.224Z,1.07
2023-01-31T18:13:23.151Z,1.04
2023-01-31T18:16:02.094Z,1.00
2023-01-31T18:18:30.357Z,0.96
2023-01-31T18:20:58.952Z,0.94
2023-01-31T18:23:27.074Z,0.94
2023-01-31T18:25:54.998Z,0.95
2023-01-31T18:28:24.076Z,0.95
2023-01-31T18:30:52.155Z,1.00
2023-01-31T18:33:20.275Z,0.99
2023-01-31T18:35:58.732Z,0.96
2023-01-31T18:38:28.287Z,0.91
2023-01-31T18:40:59.560Z,0.88
2023-01-31T18:43:29.822Z,0.89
2023-01-31T18:45:57.872Z,0.88
2023-01-31T18:48:26.077Z,0.85
2023-01-31T18:50:54.370Z,0.82
2023-01-31T18:53:22.574Z,0.80
2023-01-31T18:55:58.902Z,0.78
2023-01-31T18:58:37.405Z,0.81
2023-01-31T19:01:13.224Z,0.80
2023-01-31T19:03:42.973Z,0.83
2023-01-31T19:06:12.425Z,0.85
2023-01-31T19:08:41.011Z,0.81
2023-01-31T19:11:09.208Z,0.79
2023-01-31T19:13:38.359Z,0.73
2023-01-31T19:16:10.115Z,0.64
2023-01-31T19:18:38.619Z,0.56
2023-01-31T19:21:22.165Z,0.50
2023-01-31T19:23:55.934Z,0.43
2023-01-31T19:26:24.256Z,0.36
2023-01-31T19:28:54.445Z,0.32
2023-01-31T19:31:25.693Z,0.24
2023-01-31T19:33:56.575Z,0.23
2023-01-31T19:36:30.433Z,0.18
2023-01-31T19:39:00.718Z,0.15
2023-01-31T19:41:33.459Z,0.13
2023-01-31T19:44:02.055Z,0.02
2023-01-31T19:46:33.265Z,0.06
2023-01-31T19:49:01.913Z,0.05
2023-01-31T19:51:30.966Z,0.09
2023-01-31T19:54:03.597Z,0.10
2023-01-31T19:56:32.331Z,0.08
2023-01-31T19:59:00.875Z,0.07
2023-01-31T20:01:29.216Z,-0.01
2023-01-31T20:03:57.313Z,0.02
2023-01-31T20:06:28.843Z,0.05
2023-01-31T20:08:59.188Z,0.04
2023-01-31T20:11:29.719Z,0.05
2023-01-31T20:13:58.114Z,0.05
2023-01-31T20:16:27.305Z,0.03
2023-01-31T20:18:56.337Z,-0.01
2023-01-31T20:21:24.595Z,-0.02
2023-01-31T20:23:52.704Z,-0.03
2023-01-31T20:26:22.914Z,-0.04
2023-01-31T20:28:51.215Z,-0.03
2023-01-31T20:31:19.458Z,-0.03
2023-01-31T20:33:47.533Z,-0.02
2023-01-31T20:36:15.503Z,0.00
2023-01-31T20:38:43.516Z,0.02
2023-01-31T20:41:11.653Z,0.04
2023-01-31T20:43:39.656Z,0.08
2023-01-31T20:46:10.537Z,0.10
2023-01-31T20:48:40.117Z,0.11
2023-01-31T20:51:09.037Z,0.10
2023-01-31T20:53:37.420Z,0.09
2023-01-31T20:56:10.599Z,0.08
2023-01-31T20:58:41.433Z,0.04
2023-01-31T21:01:12.627Z,0.05
2023-01-31T21:03:40.995Z,0.03
2023-01-31T21:06:09.274Z,0.01
2023-01-31T21:08:37.341Z,-0.02
2023-01-31T21:11:08.160Z,-0.03
2023-01-31T21:13:37.241Z,-0.04
2023-01-31T21:16:10.275Z,-0.01
2023-01-31T21:18:40.870Z,0.02
2023-01-31T21:21:11.123Z,0.06
2023-01-31T21:23:40.475Z,0.08
2023-01-31T21:26:11.505Z,0.07
2023-01-31T21:28:43.981Z,0.06
2023-01-31T21:31:17.624Z,0.02
2023-01-31T21:33:48.097Z,0.00
2023-01-31T21:36:19.701Z,-0.03
2023-01-31T21:38:48.375Z,-0.10
2023-01-31T21:41:36.627Z,-0.10
2023-01-31T21:44:04.717Z,-0.12
2023-01-31T21:46:32.897Z,-0.14
2023-01-31T21:49:01.516Z,-0.13
2023-01-31T21:51:29.691Z,-0.16
2023-01-31T21:53:57.687Z,-0.18
2023-01-31T21:56:28.231Z,-0.20
2023-01-31T21:58:57.175Z,-0.22
2023-01-31T22:01:28.925Z,-0.26
2023-01-31T22:03:58.365Z,-0.31
2023-01-31T22:06:31.561Z,-0.37
2023-01-31T22:09:01.435Z,-0.39
2023-01-31T22:11:34.715Z,-0.39
2023-01-31T22:14:06.287Z,-0.41
2023-01-31T22:16:34.901Z,-0.41
2023-01-31T22:19:06.348Z,-0.44
2023-01-31T22:21:36.886Z,-0.45
2023-01-31T22:24:06.435Z,-0.47
2023-01-31T22:26:37.289Z,-0.50
2023-01-31T22:29:07.748Z,-0.53
2023-01-31T22:31:36.838Z,-0.56
2023-01-31T22:34:07.108Z,-0.60
2023-01-31T22:36:35.624Z,-0.64
2023-01-31T22:39:03.708Z,-0.68
2023-01-31T22:41:32.134Z,-0.70
2023-01-31T22:44:00.091Z,-0.71
2023-01-31T22:46:29.087Z,-0.68
2023-01-31T22:48:57.728Z,-0.66
2023-01-31T22:51:27.947Z,-0.65
2023-01-31T22:53:57.741Z,-0.63
2023-01-31T22:56:31.572Z,-0.60
2023-01-31T22:59:02.623Z,-0.57
2023-01-31T23:01:34.825Z,-0.54
2023-01-31T23:04:06.749Z,-0.52
2023-01-31T23:06:35.878Z,-0.50
2023-01-31T23:09:04.415Z,-0.51
2023-01-31T23:11:32.970Z,-0.48
2023-01-31T23:14:01.139Z,-0.48
2023-01-31T23:16:47.830Z,-0.46
2023-01-31T23:19:16.474Z,-0.43
2023-01-31T23:21:45.169Z,-0.40
2023-01-31T23:24:16.939Z,-0.36
2023-01-31T23:26:44.997Z,-0.34
2023-01-31T23:29:13.422Z,-0.33
2023-01-31T23:31:41.677Z,-0.35
2023-01-31T23:34:10.067Z,-0.38
2023-01-31T23:36:38.049Z,-0.46
2023-01-31T23:39:06.350Z,-0.51
2023-01-31T23:41:34.370Z,-0.58
2023-01-31T23:44:03.720Z,-0.66
2023-01-31T23:46:32.036Z,-0.74
2023-01-31T23:49:00.114Z,-0.81
2023-01-31T23:51:28.643Z,-0.88
2023-01-31T23:53:57.194Z,-0.91
2023-01-31T23:56:26.685Z,-0.93
2023-01-31T23:58:54.873Z,-0.97
